createdAt,value
2023-05-20T00:00:54.821Z,17.63
2023-05-20T00:03:21.877Z,17.61
2023-05-20T00:05:49.068Z,17.55
2023-05-20T00:08:15.932Z,17.44
2023-05-20T00:10:43.948Z,17.41
2023-05-20T00:13:11.056Z,17.39
2023-05-20T00:15:38.028Z,17.39
2023-05-20T00:18:04.935Z,17.35
2023-05-20T00:20:32.631Z,17.21
2023-05-20T00:23:00.592Z,17.35
2023-05-20T00:25:28.415Z,17.43
2023-05-20T00:27:55.419Z,17.32
2023-05-20T00:30:22.474Z,17.32
2023-05-20T00:32:49.591Z,17.25
2023-05-20T00:35:16.578Z,17.34
2023-05-20T00:37:44.530Z,17.34
2023-05-20T00:40:13.088Z,17.22
2023-05-20T00:42:45.128Z,17.18
2023-05-20T00:45:13.075Z,17.17
2023-05-20T00:47:41.149Z,17.12
2023-05-20T00:50:10.391Z,17.15
2023-05-20T00:52:39.527Z,17.19
2023-05-20T00:55:07.497Z,17.24
2023-05-20T00:57:34.436Z,17.20
2023-05-20T01:00:01.606Z,17.21
2023-05-20T01:02:28.902Z,17.22
2023-05-20T01:04:56.940Z,17.17
2023-05-20T01:07:23.969Z,17.16
2023-05-20T01:09:52.562Z,17.19
2023-05-20T01:12:40.473Z,17.13
2023-05-20T01:15:11.349Z,17.14
2023-05-20T01:17:47.079Z,17.19
2023-05-20T01:20:15.318Z,17.13
2023-05-20T01:22:49.461Z,17.08
2023-05-20T01:25:20.144Z,17.07
2023-05-20T01:27:49.392Z,17.09
2023-05-20T01:30:16.447Z,17.09
2023-05-20T01:32:49.755Z,17.07
2023-05-20T01:35:18.110Z,17.01
2023-05-20T01:37:44.978Z,17.01
2023-05-20T01:40:15.204Z,16.93
2023-05-20T01:42:46.753Z,16.90
2023-05-20T01:45:17.058Z,16.86
2023-05-20T01:47:46.015Z,16.81
2023-05-20T01:50:12.997Z,16.83
2023-05-20T01:52:40.315Z,16.81
2023-05-20T01:55:07.497Z,16.76
2023-05-20T01:57:34.406Z,16.71
2023-05-20T02:00:01.386Z,16.74
2023-05-20T02:02:28.870Z,16.77
2023-05-20T02:04:55.912Z,16.76
2023-05-20T02:07:24.937Z,16.73
2023-05-20T02:09:54.503Z,16.77
2023-05-20T02:12:21.470Z,16.79
2023-05-20T02:14:48.457Z,16.80
2023-05-20T02:17:18.127Z,16.78
2023-05-20T02:19:46.940Z,16.77
2023-05-20T02:22:14.513Z,16.74
2023-05-20T02:24:43.815Z,16.67
2023-05-20T02:27:10.924Z,16.63
2023-05-20T02:29:37.898Z,16.63
2023-05-20T02:32:07.120Z,16.55
2023-05-20T02:34:34.092Z,16.60
2023-05-20T02:37:02.263Z,16.62
2023-05-20T02:39:31.625Z,16.63
2023-05-20T02:41:59.654Z,16.63
2023-05-20T02:44:26.581Z,16.66
2023-05-20T02:46:55.017Z,16.66
2023-05-20T02:49:24.380Z,16.63
2023-05-20T02:51:52.296Z,16.67
2023-05-20T02:54:19.411Z,16.59
2023-05-20T02:56:47.415Z,16.60
2023-05-20T02:59:16.911Z,16.51
2023-05-20T03:01:45.008Z,16.52
2023-05-20T03:04:12.804Z,16.55
2023-05-20T03:06:44.773Z,16.62
2023-05-20T03:09:12.942Z,16.67
2023-05-20T03:11:40.200Z,16.77
2023-05-20T03:14:07.104Z,16.82
2023-05-20T03:16:35.567Z,16.91
2023-05-20T03:19:06.481Z,16.98
2023-05-20T03:21:35.683Z,17.11
2023-05-20T03:24:02.542Z,17.14
2023-05-20T03:26:34.032Z,17.13
2023-05-20T03:29:00.985Z,17.12
2023-05-20T03:31:27.993Z,17.33
2023-05-20T03:33:55.950Z,17.43
2023-05-20T03:36:22.907Z,17.49
2023-05-20T03:38:50.480Z,17.52
2023-05-20T03:41:18.598Z,17.70
2023-05-20T03:43:45.522Z,17.77
2023-05-20T03:46:12.519Z,17.67
2023-05-20T03:48:39.513Z,17.67
2023-05-20T03:51:07.356Z,17.71
2023-05-20T03:53:35.754Z,17.79
2023-05-20T03:56:02.672Z,17.88
2023-05-20T03:58:31.369Z,17.80
2023-05-20T04:00:59.416Z,17.89
2023-05-20T04:03:29.296Z,17.93
2023-05-20T04:06:03.716Z,18.04
2023-05-20T04:08:31.718Z,17.96
2023-05-20T04:10:58.805Z,17.83
2023-05-20T04:13:25.821Z,17.68
2023-05-20T04:15:53.855Z,17.65
2023-05-20T04:18:21.409Z,17.82
2023-05-20T04:20:48.506Z,17.98
2023-05-20T04:23:15.623Z,17.87
2023-05-20T04:25:44.817Z,17.71
2023-05-20T04:28:14.294Z,17.65
2023-05-20T04:30:42.525Z,17.50
2023-05-20T04:33:12.347Z,17.60
2023-05-20T04:35:42.328Z,17.73
2023-05-20T04:38:09.681Z,17.75
2023-05-20T04:40:37.656Z,18.00
2023-05-20T04:43:06.142Z,18.25
2023-05-20T04:45:36.877Z,18.15
2023-05-20T04:48:06.235Z,18.03
2023-05-20T04:50:37.997Z,18.20
2023-05-20T04:53:08.057Z,18.28
2023-05-20T04:55:37.560Z,18.22
2023-05-20T04:58:04.476Z,17.76
2023-05-20T05:00:32.444Z,17.68
2023-05-20T05:03:00.232Z,17.44
2023-05-20T05:05:28.384Z,17.56
2023-05-20T05:07:56.398Z,17.73
2023-05-20T05:10:25.484Z,17.98
2023-05-20T05:12:52.519Z,18.15
2023-05-20T05:15:19.508Z,18.36
2023-05-20T05:17:47.634Z,18.37
2023-05-20T05:20:16.799Z,18.56
2023-05-20T05:22:44.219Z,18.49
2023-05-20T05:25:11.733Z,18.71
2023-05-20T05:27:39.824Z,18.54
2023-05-20T05:30:08.562Z,18.75
2023-05-20T05:32:36.982Z,18.96
2023-05-20T05:35:06.698Z,18.93
2023-05-20T05:37:35.357Z,19.10
2023-05-20T05:40:02.442Z,18.98
2023-05-20T05:42:29.850Z,18.95
2023-05-20T05:44:56.997Z,18.88
2023-05-20T05:47:29.848Z,18.51
2023-05-20T05:49:56.900Z,18.22
2023-05-20T05:52:23.884Z,18.08
2023-05-20T05:54:50.773Z,18.37
2023-05-20T05:57:21.284Z,18.77
2023-05-20T05:59:48.292Z,18.84
2023-05-20T06:02:16.639Z,18.72
2023-05-20T06:04:50.459Z,18.66
2023-05-20T06:07:17.996Z,18.96
2023-05-20T06:09:45.259Z,19.34
2023-05-20T06:12:14.018Z,19.21
2023-05-20T06:14:41.919Z,19.13
2023-05-20T06:17:08.812Z,18.77
2023-05-20T06:19:37.022Z,18.85
2023-05-20T06:22:04.254Z,19.23
2023-05-20T06:24:33.485Z,19.31
2023-05-20T06:27:03.412Z,18.98
2023-05-20T06:29:31.542Z,18.97
2023-05-20T06:31:58.509Z,19.18
2023-05-20T06:34:28.539Z,18.94
2023-05-20T06:36:56.851Z,18.91
2023-05-20T06:39:23.845Z,18.92
2023-05-20T06:41:52.463Z,18.77
2023-05-20T06:44:31.217Z,18.60
2023-05-20T06:47:33.562Z,18.69
2023-05-20T06:50:02.866Z,18.88
2023-05-20T06:52:30.697Z,19.44
2023-05-20T06:54:57.841Z,19.77
2023-05-20T06:57:25.861Z,19.96
2023-05-20T06:59:53.021Z,20.25
2023-05-20T07:02:22.299Z,20.37
2023-05-20T07:04:51.361Z,20.48
2023-05-20T07:07:19.093Z,20.57
2023-05-20T07:09:46.989Z,20.28
2023-05-20T07:12:14.095Z,19.69
2023-05-20T07:14:41.186Z,19.58
2023-05-20T07:17:08.370Z,19.40
2023-05-20T07:19:39.258Z,19.89
2023-05-20T07:22:08.064Z,20.13
2023-05-20T07:24:43.371Z,20.20
2023-05-20T07:27:10.936Z,20.28
2023-05-20T07:29:38.136Z,20.20
2023-05-20T07:32:09.370Z,20.39
2023-05-20T07:34:37.933Z,20.40
2023-05-20T07:37:06.356Z,20.04
2023-05-20T07:39:34.430Z,20.12
2023-05-20T07:42:01.536Z,20.29
2023-05-20T07:44:28.646Z,20.38
2023-05-20T07:46:56.272Z,19.97
2023-05-20T07:49:28.410Z,19.85
2023-05-20T07:51:55.530Z,19.63
2023-05-20T07:54:23.398Z,19.80
2023-05-20T07:56:52.287Z,20.29
2023-05-20T07:59:19.376Z,20.65
2023-05-20T08:01:48.566Z,21.01
2023-05-20T08:04:18.063Z,21.43
2023-05-20T08:06:46.973Z,21.68
2023-05-20T08:09:21.903Z,21.76
2023-05-20T08:11:50.921Z,21.93
2023-05-20T08:14:17.840Z,21.84
2023-05-20T08:16:52.985Z,21.77
2023-05-20T08:19:23.096Z,21.81
2023-05-20T08:21:54.891Z,21.68
2023-05-20T08:24:22.142Z,21.72
2023-05-20T08:26:49.317Z,22.11
2023-05-20T08:29:17.909Z,22.49
2023-05-20T08:31:44.944Z,22.49
2023-05-20T08:34:12.770Z,22.16
2023-05-20T08:36:42.641Z,22.16
2023-05-20T08:39:11.299Z,22.30
2023-05-20T08:41:39.452Z,22.43
2023-05-20T08:44:08.979Z,22.57
2023-05-20T08:46:37.273Z,22.41
2023-05-20T08:49:04.743Z,22.27
2023-05-20T08:51:32.143Z,22.22
2023-05-20T08:54:02.829Z,22.16
2023-05-20T08:56:31.070Z,21.88
2023-05-20T08:58:59.958Z,21.96
2023-05-20T09:01:27.080Z,22.44
2023-05-20T09:03:54.234Z,22.72
2023-05-20T09:06:21.394Z,22.76
2023-05-20T09:09:14.677Z,22.51
2023-05-20T09:11:42.806Z,22.23
2023-05-20T09:14:10.882Z,22.28
2023-05-20T09:16:40.415Z,22.34
2023-05-20T09:19:07.796Z,22.49
2023-05-20T09:21:35.873Z,22.29
2023-05-20T09:24:04.024Z,22.24
2023-05-20T09:26:31.605Z,22.36
2023-05-20T09:30:59.447Z,22.09
2023-05-20T09:33:32.394Z,22.72
2023-05-20T09:36:08.410Z,22.25
2023-05-20T09:38:38.741Z,22.16
2023-05-20T09:41:13.478Z,22.15
2023-05-20T09:43:43.254Z,22.38
2023-05-20T09:46:12.272Z,22.20
2023-05-20T09:48:39.082Z,22.01
2023-05-20T09:51:08.419Z,22.26
2023-05-20T09:53:36.441Z,21.91
2023-05-20T09:56:04.608Z,21.32
2023-05-20T09:58:33.789Z,21.46
2023-05-20T10:01:02.022Z,21.98
2023-05-20T10:03:29.676Z,22.53
2023-05-20T10:06:38.315Z,22.85
2023-05-20T10:09:10.036Z,23.01
2023-05-20T10:12:03.636Z,23.00
2023-05-20T10:14:45.544Z,22.21
2023-05-20T10:17:14.796Z,21.94
2023-05-20T10:19:41.651Z,21.79
2023-05-20T10:22:09.684Z,22.01
2023-05-20T10:24:42.545Z,22.23
2023-05-20T10:27:15.187Z,22.66
2023-05-20T10:29:50.695Z,22.78
2023-05-20T10:32:28.694Z,22.24
2023-05-20T10:35:00.985Z,22.00
2023-05-20T10:37:29.936Z,22.06
2023-05-20T10:40:11.287Z,22.12
2023-05-20T10:42:40.121Z,22.38
2023-05-20T10:45:07.733Z,22.52
2023-05-20T10:47:35.168Z,22.81
2023-05-20T10:50:07.914Z,22.99
2023-05-20T10:52:36.303Z,23.21
2023-05-20T10:55:06.079Z,23.21
2023-05-20T10:57:33.835Z,23.08
2023-05-20T11:00:04.594Z,23.20
2023-05-20T11:02:34.141Z,23.36
2023-05-20T11:05:04.116Z,23.30
2023-05-20T11:07:31.489Z,23.07
2023-05-20T11:09:58.632Z,23.23
2023-05-20T11:12:26.401Z,23.64
2023-05-20T11:14:56.370Z,23.92
2023-05-20T11:17:23.318Z,23.95
2023-05-20T11:19:50.427Z,23.42
2023-05-20T11:22:17.994Z,22.93
2023-05-20T11:24:45.935Z,22.51
2023-05-20T11:27:15.095Z,22.57
2023-05-20T11:29:43.406Z,22.64
2023-05-20T11:32:10.542Z,22.97
2023-05-20T11:34:38.624Z,23.21
2023-05-20T11:37:09.657Z,22.96
2023-05-20T11:39:37.323Z,22.80
2023-05-20T11:42:05.697Z,22.75
2023-05-20T11:44:32.635Z,22.93
2023-05-20T11:47:02.681Z,23.33
2023-05-20T11:49:33.088Z,23.70
2023-05-20T11:52:00.501Z,23.82
2023-05-20T11:54:27.707Z,23.90
2023-05-20T11:56:55.532Z,24.14
2023-05-20T11:59:23.547Z,24.19
2023-05-20T12:01:50.202Z,24.20
2023-05-20T12:04:17.977Z,24.02
2023-05-20T12:06:45.243Z,24.20
2023-05-20T12:09:13.384Z,24.63
2023-05-20T12:11:40.851Z,24.91
2023-05-20T12:14:09.700Z,24.75
2023-05-20T12:16:37.986Z,24.88
2023-05-20T12:19:05.150Z,24.82
2023-05-20T12:21:33.414Z,24.76
2023-05-20T12:24:00.422Z,24.36
2023-05-20T12:26:28.012Z,24.01
2023-05-20T12:28:55.637Z,24.13
2023-05-20T12:31:25.661Z,24.40
2023-05-20T12:33:55.827Z,24.50
2023-05-20T12:36:22.680Z,24.58
2023-05-20T12:38:49.616Z,24.53
2023-05-20T12:41:17.001Z,24.63
2023-05-20T12:43:44.755Z,24.40
2023-05-20T12:46:11.495Z,23.97
2023-05-20T12:48:39.952Z,23.78
2023-05-20T12:51:08.194Z,24.11
2023-05-20T12:53:35.880Z,24.18
2023-05-20T12:56:02.905Z,23.99
2023-05-20T12:58:31.624Z,23.84
2023-05-20T13:00:58.810Z,23.99
2023-05-20T13:03:26.625Z,24.35
2023-05-20T13:05:53.450Z,24.31
2023-05-20T13:08:21.221Z,24.38
2023-05-20T13:10:49.014Z,24.32
2023-05-20T13:13:21.300Z,24.18
2023-05-20T13:15:50.819Z,23.79
2023-05-20T13:18:18.913Z,23.58
2023-05-20T13:20:46.514Z,23.69
2023-05-20T13:23:14.455Z,23.76
2023-05-20T13:25:42.361Z,23.38
2023-05-20T13:28:12.554Z,23.17
2023-05-20T13:30:40.014Z,22.98
2023-05-20T13:33:07.286Z,23.18
2023-05-20T13:35:35.795Z,23.32
2023-05-20T13:38:02.964Z,23.16
2023-05-20T13:40:31.467Z,23.31
2023-05-20T13:42:58.270Z,23.57
2023-05-20T13:45:25.111Z,24.05
2023-05-20T13:47:55.488Z,24.49
2023-05-20T13:50:22.745Z,24.57
2023-05-20T13:52:53.652Z,24.36
2023-05-20T13:55:22.737Z,24.09
2023-05-20T13:57:54.224Z,23.98
2023-05-20T14:00:21.330Z,24.36
2023-05-20T14:02:48.402Z,24.53
2023-05-20T14:05:15.211Z,24.76
2023-05-20T14:07:44.650Z,24.83
2023-05-20T14:10:11.922Z,24.90
2023-05-20T14:12:39.536Z,25.03
2023-05-20T14:15:06.884Z,25.16
2023-05-20T14:17:34.016Z,25.28
2023-05-20T14:20:00.858Z,25.33
2023-05-20T14:22:28.711Z,25.27
2023-05-20T14:24:55.838Z,24.80
2023-05-20T14:27:22.553Z,24.41
2023-05-20T14:29:49.460Z,24.38
2023-05-20T14:32:16.251Z,24.68
2023-05-20T14:34:43.057Z,24.79
2023-05-20T14:37:11.454Z,25.00
2023-05-20T14:39:38.739Z,25.03
2023-05-20T14:42:05.463Z,25.00
2023-05-20T14:44:32.252Z,25.05
2023-05-20T14:46:59.018Z,25.14
2023-05-20T14:49:25.842Z,25.02
2023-05-20T14:51:52.527Z,24.74
2023-05-20T14:54:24.365Z,24.57
2023-05-20T14:56:53.949Z,24.38
2023-05-20T14:59:20.931Z,24.55
2023-05-20T15:01:47.876Z,24.81
2023-05-20T15:04:14.978Z,25.10
2023-05-20T15:06:43.210Z,25.29
2023-05-20T15:09:11.248Z,25.10
2023-05-20T15:11:38.029Z,24.73
2023-05-20T15:14:05.130Z,24.08
2023-05-20T15:16:32.275Z,24.09
2023-05-20T15:18:59.141Z,24.28
2023-05-20T15:21:25.906Z,24.47
2023-05-20T15:23:52.872Z,24.05
2023-05-20T15:26:19.606Z,23.88
2023-05-20T15:28:46.591Z,24.16
2023-05-20T15:31:13.376Z,24.11
2023-05-20T15:33:40.645Z,23.86
2023-05-20T15:36:07.785Z,23.89
2023-05-20T15:38:35.848Z,23.74
2023-05-20T15:41:02.705Z,23.97
2023-05-20T15:43:30.194Z,24.32
2023-05-20T15:45:57.020Z,24.62
2023-05-20T15:48:23.855Z,24.31
2023-05-20T15:50:50.571Z,23.87
2023-05-20T15:53:43.517Z,23.90
2023-05-20T15:56:13.249Z,23.80
2023-05-20T15:58:40.460Z,23.96
2023-05-20T16:01:10.540Z,24.04
2023-05-20T16:03:39.024Z,23.83
2023-05-20T16:06:06.865Z,23.61
2023-05-20T16:08:36.747Z,23.44
2023-05-20T16:11:04.277Z,23.44
2023-05-20T16:13:32.496Z,23.50
2023-05-20T16:15:59.374Z,23.28
2023-05-20T16:18:29.220Z,23.28
2023-05-20T16:20:58.274Z,23.39
2023-05-20T16:23:25.129Z,23.42
2023-05-20T16:25:51.966Z,23.50
2023-05-20T16:28:19.352Z,23.52
2023-05-20T16:30:46.225Z,23.21
2023-05-20T16:33:13.326Z,23.08
2023-05-20T16:35:40.293Z,22.76
2023-05-20T16:38:08.258Z,22.67
2023-05-20T16:40:36.656Z,22.76
2023-05-20T16:43:03.416Z,22.67
2023-05-20T16:45:30.262Z,22.65
2023-05-20T16:47:57.798Z,22.83
2023-05-20T16:50:25.873Z,22.70
2023-05-20T16:52:53.793Z,22.36
2023-05-20T16:55:21.899Z,22.24
2023-05-20T16:57:50.630Z,22.26
2023-05-20T17:00:17.989Z,22.26
2023-05-20T17:02:46.530Z,22.41
2023-05-20T17:05:14.651Z,22.43
2023-05-20T17:07:43.938Z,21.98
2023-05-20T17:10:11.711Z,21.90
2023-05-20T17:12:39.494Z,21.89
2023-05-20T17:15:10.164Z,21.85
2023-05-20T17:17:36.977Z,21.70
2023-05-20T17:20:04.813Z,21.56
2023-05-20T17:22:37.576Z,21.52
2023-05-20T17:25:05.270Z,21.42
2023-05-20T17:27:32.930Z,21.39
2023-05-20T17:30:00.316Z,21.28
2023-05-20T17:32:28.201Z,21.36
2023-05-20T17:34:55.259Z,21.16
2023-05-20T17:37:22.219Z,21.11
2023-05-20T17:39:49.197Z,20.96
2023-05-20T17:42:16.128Z,20.97
2023-05-20T17:44:43.127Z,20.78
2023-05-20T17:47:09.748Z,20.76
2023-05-20T17:49:37.081Z,20.67
2023-05-20T17:52:04.092Z,20.57
2023-05-20T17:54:32.964Z,20.53
2023-05-20T17:56:59.749Z,20.46
2023-05-20T17:59:26.552Z,20.48
2023-05-20T18:01:53.241Z,20.45
2023-05-20T18:04:22.193Z,20.45
2023-05-20T18:06:49.692Z,20.40
2023-05-20T18:09:17.967Z,20.35
2023-05-20T18:11:45.638Z,20.28
2023-05-20T18:14:12.809Z,20.24
2023-05-20T18:16:40.037Z,20.23
2023-05-20T18:19:07.017Z,20.21
2023-05-20T18:21:35.158Z,20.10
2023-05-20T18:24:02.092Z,20.12
2023-05-20T18:26:31.158Z,19.95
2023-05-20T18:28:57.957Z,20.01
2023-05-20T18:31:26.794Z,19.97
2023-05-20T18:33:53.422Z,19.99
2023-05-20T18:36:20.405Z,19.96
2023-05-20T18:38:47.426Z,19.85
2023-05-20T18:41:14.314Z,19.88
2023-05-20T18:43:41.145Z,19.73
2023-05-20T18:46:08.957Z,19.69
2023-05-20T18:48:35.947Z,19.46
2023-05-20T18:51:02.916Z,19.50
2023-05-20T18:53:30.119Z,19.36
2023-05-20T18:56:00.711Z,19.41
2023-05-20T18:58:29.179Z,19.31
2023-05-20T19:00:56.016Z,19.26
2023-05-20T19:03:24.707Z,19.22
2023-05-20T19:05:51.500Z,19.17
2023-05-20T19:08:18.646Z,19.16
2023-05-20T19:10:47.080Z,19.25
2023-05-20T19:13:16.103Z,19.07
2023-05-20T19:15:43.186Z,18.99
2023-05-20T19:18:10.757Z,18.97
2023-05-20T19:20:37.402Z,18.92
2023-05-20T19:23:08.475Z,18.86
2023-05-20T19:25:36.434Z,18.81
2023-05-20T19:28:03.595Z,18.78
2023-05-20T19:30:30.466Z,18.72
2023-05-20T19:32:57.376Z,18.72
2023-05-20T19:35:24.065Z,18.75
2023-05-20T19:37:53.084Z,18.70
2023-05-20T19:40:20.619Z,18.68
2023-05-20T19:42:51.254Z,18.63
2023-05-20T19:45:22.919Z,18.58
2023-05-20T19:47:50.728Z,18.54
2023-05-20T19:50:19.605Z,18.47
2023-05-20T19:52:46.399Z,18.38
2023-05-20T19:55:13.510Z,18.40
2023-05-20T19:57:40.345Z,18.33
2023-05-20T20:00:10.767Z,18.23
2023-05-20T20:02:43.552Z,18.29
2023-05-20T20:05:12.544Z,18.15
2023-05-20T20:07:40.270Z,18.26
2023-05-20T20:10:08.089Z,18.14
2023-05-20T20:12:35.126Z,18.03
2023-05-20T20:15:02.898Z,18.01
2023-05-20T20:17:30.213Z,17.85
2023-05-20T20:19:57.470Z,17.70
2023-05-20T20:22:24.206Z,17.64
2023-05-20T20:25:09.708Z,17.66
2023-05-20T20:27:37.908Z,17.55
2023-05-20T20:30:05.652Z,17.45
2023-05-20T20:32:33.095Z,17.36
2023-05-20T20:35:00.911Z,17.37
2023-05-20T20:37:27.645Z,17.33
2023-05-20T20:39:54.624Z,17.33
2023-05-20T20:42:22.438Z,17.18
2023-05-20T20:44:51.993Z,17.27
2023-05-20T20:47:18.684Z,17.23
2023-05-20T20:49:45.428Z,17.16
2023-05-20T20:52:12.111Z,17.07
2023-05-20T20:54:40.128Z,17.23
2023-05-20T20:57:08.274Z,17.10
2023-05-20T20:59:34.848Z,17.14
2023-05-20T21:02:02.734Z,17.13
2023-05-20T21:04:30.567Z,17.09
2023-05-20T21:07:01.705Z,17.06
2023-05-20T21:09:29.270Z,17.05
2023-05-20T21:11:56.642Z,16.94
2023-05-20T21:14:23.530Z,16.88
2023-05-20T21:16:50.386Z,16.88
2023-05-20T21:19:17.046Z,16.71
2023-05-20T21:21:44.369Z,16.75
2023-05-20T21:24:10.900Z,16.73
2023-05-20T21:26:37.494Z,16.71
2023-05-20T21:29:05.398Z,16.64
2023-05-20T21:31:32.091Z,16.63
2023-05-20T21:33:58.845Z,16.49
2023-05-20T21:36:25.475Z,16.44
2023-05-20T21:38:52.192Z,16.16
2023-05-20T21:41:18.812Z,16.23
2023-05-20T21:43:45.563Z,16.22
2023-05-20T21:48:32.602Z,15.95
2023-05-20T21:50:59.241Z,16.22
2023-05-20T21:53:25.878Z,16.18
2023-05-20T21:55:52.546Z,16.01
2023-05-20T21:58:19.489Z,15.90
2023-05-20T22:00:46.219Z,15.91
2023-05-20T22:03:14.033Z,15.89
2023-05-20T22:05:45.375Z,15.59
2023-05-20T22:08:13.466Z,15.49
2023-05-20T22:10:40.225Z,15.57
2023-05-20T22:13:10.298Z,15.51
2023-05-20T22:15:37.614Z,15.53
2023-05-20T22:18:07.471Z,15.42
2023-05-20T22:20:38.088Z,15.44
2023-05-20T22:23:05.843Z,15.36
2023-05-20T22:25:33.494Z,15.32
2023-05-20T22:28:00.850Z,15.23
2023-05-20T22:30:27.989Z,15.05
2023-05-20T22:33:00.789Z,14.93
2023-05-20T22:35:27.521Z,14.92
2023-05-20T22:37:56.679Z,14.79
2023-05-20T22:40:23.336Z,14.73
2023-05-20T22:42:50.019Z,14.69
2023-05-20T22:45:16.786Z,14.62
2023-05-20T22:47:45.630Z,14.60
2023-05-20T22:50:13.002Z,14.50
2023-05-20T22:52:41.092Z,14.46
2023-05-20T22:55:08.511Z,14.38
2023-05-20T22:57:36.318Z,14.40
2023-05-20T23:00:04.371Z,14.28
2023-05-20T23:02:32.101Z,14.31
2023-05-20T23:04:58.808Z,14.24
2023-05-20T23:07:26.439Z,14.29
2023-05-20T23:09:53.099Z,14.21
2023-05-20T23:12:20.758Z,14.14
2023-05-20T23:14:48.117Z,14.17
2023-05-20T23:17:15.488Z,14.04
2023-05-20T23:19:42.283Z,14.06
2023-05-20T23:22:09.005Z,13.99
2023-05-20T23:24:35.937Z,14.00
2023-05-20T23:27:04.124Z,14.04
2023-05-20T23:29:31.083Z,13.87
2023-05-20T23:31:58.738Z,13.93
2023-05-20T23:34:26.780Z,13.85
2023-05-20T23:36:53.453Z,13.82
2023-05-20T23:39:21.173Z,13.71
2023-05-20T23:41:47.964Z,13.79
2023-05-20T23:44:14.694Z,13.76
2023-05-20T23:46:41.558Z,13.72
2023-05-20T23:49:09.607Z,13.62
2023-05-20T23:51:36.188Z,13.61
2023-05-20T23:54:02.829Z,13.62
2023-05-20T23:56:29.705Z,13.70
2023-05-20T23:58:57.596Z,13.68
